createdAt,value
2022-08-03T00:01:45.723Z,2.58
2022-08-03T00:04:13.968Z,2.10
2022-08-03T00:06:42.005Z,2.45
2022-08-03T00:09:10.417Z,2.55
2022-08-03T00:11:38.591Z,2.30
2022-08-03T00:14:08.854Z,2.42
2022-08-03T00:16:38.558Z,2.20
2022-08-03T00:19:06.624Z,2.40
2022-08-03T00:21:34.661Z,2.45
2022-08-03T00:24:02.766Z,2.08
2022-08-03T00:26:31.779Z,2.65
2022-08-03T00:28:59.910Z,2.63
2022-08-03T00:31:51.444Z,2.33
2022-08-03T00:34:17.380Z,2.50
2022-08-03T00:36:57.922Z,2.60
2022-08-03T00:39:25.939Z,2.30
2022-08-03T00:41:54.140Z,2.40
2022-08-03T00:44:22.166Z,3.00
2022-08-03T00:46:50.288Z,3.00
2022-08-03T00:49:19.769Z,3.28
2022-08-03T00:51:48.867Z,2.70
2022-08-03T00:54:17.243Z,2.95
2022-08-03T00:57:00.066Z,2.60
2022-08-03T00:59:28.803Z,2.72
2022-08-03T01:01:57.196Z,3.55
2022-08-03T01:04:26.762Z,2.53
2022-08-03T01:07:04.960Z,2.72
2022-08-03T01:09:48.642Z,2.50
2022-08-03T01:12:23.592Z,2.75
2022-08-03T01:14:59.737Z,2.53
2022-08-03T01:17:35.564Z,2.33
2022-08-03T01:20:08.564Z,2.15
2022-08-03T01:22:50.751Z,2.20
2022-08-03T01:25:33.958Z,2.50
2022-08-03T01:28:21.159Z,2.22
2022-08-03T01:30:53.873Z,2.33
2022-08-03T01:36:00.169Z,2.60
2022-08-03T01:38:32.398Z,2.60
2022-08-03T01:41:05.755Z,2.55
2022-08-03T01:44:27.652Z,2.50
2022-08-03T01:46:26.211Z,2.00
2022-08-03T01:48:56.334Z,2.22
2022-08-03T01:51:24.634Z,2.25
2022-08-03T01:54:14.691Z,2.30
2022-08-03T01:56:46.569Z,2.50
2022-08-03T01:59:17.680Z,2.50
2022-08-03T02:02:27.795Z,2.35
2022-08-03T02:04:39.687Z,2.13
2022-08-03T02:07:09.066Z,2.30
2022-08-03T02:09:40.044Z,2.85
2022-08-03T02:12:10.377Z,2.38
2022-08-03T02:14:40.487Z,2.40
2022-08-03T02:17:11.587Z,2.78
2022-08-03T02:19:40.905Z,2.50
2022-08-03T02:22:13.212Z,2.40
2022-08-03T02:24:41.706Z,2.85
2022-08-03T02:27:21.250Z,2.42
2022-08-03T02:29:56.215Z,2.60
2022-08-03T02:32:31.673Z,2.72
2022-08-03T02:35:01.785Z,2.13
2022-08-03T02:37:35.446Z,2.63
2022-08-03T02:40:07.241Z,2.20
2022-08-03T02:42:38.053Z,2.53
2022-08-03T02:45:12.482Z,3.20
2022-08-03T02:47:54.035Z,2.38
2022-08-03T02:50:25.576Z,2.47
2022-08-03T02:52:56.188Z,2.55
2022-08-03T02:55:27.403Z,2.80
2022-08-03T02:57:56.890Z,3.20
2022-08-03T03:00:30.842Z,2.63
2022-08-03T03:03:04.055Z,2.95
2022-08-03T03:05:54.547Z,2.88
2022-08-03T03:08:26.885Z,2.50
2022-08-03T03:10:59.218Z,2.67
2022-08-03T03:13:29.346Z,2.85
2022-08-03T03:16:00.762Z,2.80
2022-08-03T03:18:32.134Z,2.97
2022-08-03T03:21:02.635Z,2.63
2022-08-03T03:23:31.892Z,2.83
2022-08-03T03:26:02.465Z,2.60
2022-08-03T03:28:31.728Z,3.08
2022-08-03T03:31:00.451Z,2.53
2022-08-03T03:33:28.821Z,2.88
2022-08-03T03:35:59.757Z,2.72
2022-08-03T03:38:27.999Z,4.07
2022-08-03T03:40:56.795Z,3.25
2022-08-03T03:43:25.432Z,3.85
2022-08-03T03:45:54.029Z,3.10
2022-08-03T03:48:22.312Z,3.30
2022-08-03T03:50:51.552Z,3.25
2022-08-03T03:53:21.060Z,3.00
2022-08-03T03:56:01.218Z,2.85
2022-08-03T03:58:32.198Z,3.00
2022-08-03T04:01:00.667Z,3.10
2022-08-03T04:03:29.136Z,3.58
2022-08-03T04:06:15.339Z,3.75
2022-08-03T04:09:02.490Z,4.20
2022-08-03T04:11:37.418Z,4.10
2022-08-03T04:14:10.208Z,3.30
2022-08-03T04:19:22.610Z,3.95
2022-08-03T04:21:57.058Z,4.72
2022-08-03T04:24:32.051Z,4.28
2022-08-03T04:27:01.986Z,4.32
2022-08-03T04:29:34.363Z,4.68
2022-08-03T04:32:03.303Z,4.47
2022-08-03T04:34:32.048Z,4.53
2022-08-03T04:37:03.051Z,4.55
2022-08-03T04:39:34.010Z,3.55
2022-08-03T04:42:08.752Z,4.60
2022-08-03T04:44:39.049Z,4.60
2022-08-03T04:47:07.283Z,4.97
2022-08-03T04:49:37.482Z,5.82
2022-08-03T04:52:06.690Z,5.53
2022-08-03T04:54:42.818Z,5.50
2022-08-03T04:57:23.305Z,5.40
2022-08-03T05:00:01.021Z,6.05
2022-08-03T05:02:31.986Z,5.60
2022-08-03T05:05:00.263Z,5.68
2022-08-03T05:07:34.076Z,6.03
2022-08-03T05:10:14.833Z,5.65
2022-08-03T05:12:44.404Z,6.57
2022-08-03T05:15:12.996Z,6.82
2022-08-03T05:17:41.266Z,5.95
2022-08-03T05:20:10.594Z,6.20
2022-08-03T05:22:38.639Z,5.60
2022-08-03T05:25:08.855Z,6.15
2022-08-03T05:27:36.884Z,6.47
2022-08-03T05:30:31.110Z,6.53
2022-08-03T05:32:54.508Z,6.25
2022-08-03T05:36:01.934Z,6.72
2022-08-03T05:38:13.422Z,6.93
2022-08-03T05:40:57.290Z,6.47
2022-08-03T05:43:26.120Z,7.20
2022-08-03T05:46:11.596Z,7.00
2022-08-03T05:48:40.860Z,6.53
2022-08-03T05:51:11.673Z,6.30
2022-08-03T05:53:40.474Z,6.60
2022-08-03T05:56:13.758Z,6.10
2022-08-03T05:58:44.515Z,6.05
2022-08-03T06:01:12.678Z,5.40
2022-08-03T06:03:40.829Z,5.40
2022-08-03T06:06:09.054Z,4.60
2022-08-03T06:08:37.204Z,5.88
2022-08-03T06:11:05.225Z,4.78
2022-08-03T06:13:35.007Z,4.05
2022-08-03T06:16:03.338Z,3.53
2022-08-03T06:18:31.313Z,4.00
2022-08-03T06:21:14.891Z,3.85
2022-08-03T06:23:53.179Z,3.67
2022-08-03T06:26:23.143Z,3.42
2022-08-03T06:28:54.260Z,3.03
2022-08-03T06:31:24.155Z,3.90
2022-08-03T06:34:32.154Z,3.75
2022-08-03T06:36:40.810Z,3.63
2022-08-03T06:39:09.137Z,3.45
2022-08-03T06:41:38.127Z,3.30
2022-08-03T06:44:14.077Z,3.50
2022-08-03T06:46:43.315Z,3.85
2022-08-03T06:49:11.476Z,3.65
2022-08-03T06:52:06.089Z,3.25
2022-08-03T06:54:32.580Z,3.85
2022-08-03T06:57:01.167Z,3.88
2022-08-03T07:00:09.680Z,3.13
2022-08-03T07:02:20.403Z,3.30
2022-08-03T07:04:48.929Z,3.10
2022-08-03T07:07:17.448Z,3.20
2022-08-03T07:09:56.410Z,3.65
2022-08-03T07:12:26.291Z,2.85
2022-08-03T07:15:00.261Z,3.17
2022-08-03T07:17:29.070Z,2.75
2022-08-03T07:19:57.126Z,3.30
2022-08-03T07:22:25.420Z,2.78
2022-08-03T07:24:53.150Z,3.10
2022-08-03T07:27:21.417Z,2.70
2022-08-03T07:29:49.505Z,2.83
2022-08-03T07:32:19.336Z,2.80
2022-08-03T07:34:47.750Z,2.60
2022-08-03T07:37:15.778Z,3.58
2022-08-03T07:39:43.910Z,2.55
2022-08-03T07:42:12.083Z,2.63
2022-08-03T07:44:42.187Z,2.67
2022-08-03T07:47:10.290Z,3.35
2022-08-03T07:49:51.848Z,2.42
2022-08-03T07:52:37.589Z,2.75
2022-08-03T07:55:07.433Z,2.40
2022-08-03T07:57:36.475Z,2.70
2022-08-03T08:00:07.505Z,2.42
2022-08-03T08:02:35.724Z,2.80
2022-08-03T08:05:06.170Z,2.70
2022-08-03T08:07:34.353Z,2.33
2022-08-03T08:10:02.402Z,3.03
2022-08-03T08:12:30.411Z,3.03
2022-08-03T08:14:58.522Z,2.45
2022-08-03T08:17:26.584Z,2.67
2022-08-03T08:19:54.766Z,2.42
2022-08-03T08:22:30.494Z,3.17
2022-08-03T08:25:01.279Z,2.75
2022-08-03T08:28:29.547Z,3.28
2022-08-03T08:30:20.247Z,2.60
2022-08-03T08:32:48.847Z,2.78
2022-08-03T08:35:18.002Z,2.58
2022-08-03T08:37:51.175Z,2.55
2022-08-03T08:40:22.785Z,2.80
2022-08-03T08:42:58.450Z,3.08
2022-08-03T08:45:27.533Z,2.60
2022-08-03T08:48:01.895Z,2.75
2022-08-03T08:50:31.992Z,3.10
2022-08-03T08:53:04.744Z,2.50
2022-08-03T08:55:56.952Z,2.47
2022-08-03T08:58:24.312Z,2.92
2022-08-03T09:00:52.776Z,2.97
2022-08-03T09:03:29.154Z,3.28
2022-08-03T09:06:01.260Z,2.70
2022-08-03T09:08:32.955Z,2.88
2022-08-03T09:11:01.317Z,3.27
2022-08-03T09:13:30.605Z,2.95
2022-08-03T09:16:15.363Z,2.50
2022-08-03T09:18:44.376Z,3.35
2022-08-03T09:21:31.855Z,2.47
2022-08-03T09:24:07.139Z,2.60
2022-08-03T09:26:38.807Z,3.28
2022-08-03T09:29:13.891Z,3.20
2022-08-03T09:31:45.081Z,3.13
2022-08-03T09:34:14.868Z,2.72
2022-08-03T09:36:44.779Z,2.80
2022-08-03T09:39:16.022Z,2.55
2022-08-03T09:41:45.522Z,3.88
2022-08-03T09:44:24.640Z,2.55
2022-08-03T09:46:57.258Z,2.88
2022-08-03T09:49:26.177Z,3.53
2022-08-03T09:52:31.296Z,2.95
2022-08-03T09:54:44.689Z,2.90
2022-08-03T09:57:23.971Z,3.25
2022-08-03T10:00:01.869Z,2.88
2022-08-03T10:02:33.449Z,2.20
2022-08-03T10:05:01.484Z,2.53
2022-08-03T10:07:29.492Z,3.22
2022-08-03T10:10:31.872Z,3.00
2022-08-03T10:12:49.295Z,2.45
2022-08-03T10:16:22.327Z,2.80
2022-08-03T10:18:06.235Z,2.47
2022-08-03T10:20:41.246Z,3.10
2022-08-03T10:23:09.982Z,2.95
2022-08-03T10:25:42.154Z,2.50
2022-08-03T10:28:16.161Z,2.83
2022-08-03T10:30:49.040Z,2.33
2022-08-03T10:33:51.082Z,2.83
2022-08-03T10:36:10.216Z,2.80
2022-08-03T10:38:41.581Z,2.95
2022-08-03T10:41:12.161Z,2.58
2022-08-03T10:43:49.039Z,2.85
2022-08-03T10:46:20.691Z,2.40
2022-08-03T10:48:51.733Z,3.25
2022-08-03T10:51:21.229Z,2.78
2022-08-03T10:53:54.530Z,2.63
2022-08-03T10:57:14.347Z,3.22
2022-08-03T11:00:00.548Z,2.80
2022-08-03T11:03:11.201Z,2.58
2022-08-03T11:05:41.968Z,2.72
2022-08-03T11:08:32.765Z,2.92
2022-08-03T11:11:23.610Z,2.70
2022-08-03T11:14:02.845Z,2.78
2022-08-03T11:16:32.533Z,3.10
2022-08-03T11:19:02.990Z,2.85
2022-08-03T11:22:00.011Z,2.90
2022-08-03T11:25:01.986Z,2.95
2022-08-03T11:27:31.917Z,2.80
2022-08-03T11:30:04.979Z,2.55
2022-08-03T11:33:01.661Z,2.47
2022-08-03T11:35:31.879Z,2.50
2022-08-03T11:38:08.251Z,2.83
2022-08-03T11:40:38.792Z,2.75
2022-08-03T11:43:08.542Z,2.75
2022-08-03T11:45:39.211Z,2.03
2022-08-03T11:48:17.911Z,3.15
2022-08-03T11:50:46.500Z,2.30
2022-08-03T11:53:19.622Z,3.00
2022-08-03T11:55:50.170Z,2.67
2022-08-03T11:59:11.043Z,2.83
2022-08-03T12:01:11.452Z,2.67
2022-08-03T12:03:39.580Z,2.67
2022-08-03T12:06:11.963Z,2.42
2022-08-03T12:08:40.689Z,2.40
2022-08-03T12:11:11.435Z,2.00
2022-08-03T12:14:26.825Z,2.10
2022-08-03T12:16:31.100Z,2.55
2022-08-03T12:19:00.549Z,2.70
2022-08-03T12:21:29.115Z,2.20
2022-08-03T12:24:01.223Z,2.83
2022-08-03T12:28:57.533Z,2.80
2022-08-03T12:31:25.924Z,2.70
2022-08-03T12:34:02.886Z,2.40
2022-08-03T12:36:32.418Z,2.70
2022-08-03T12:39:02.485Z,2.50
2022-08-03T12:41:34.174Z,2.65
2022-08-03T12:44:04.202Z,2.63
2022-08-03T12:46:34.188Z,2.47
2022-08-03T12:49:08.684Z,2.70
2022-08-03T12:51:38.645Z,2.85
2022-08-03T12:54:07.320Z,2.55
2022-08-03T12:56:35.784Z,2.30
2022-08-03T12:59:32.353Z,2.28
2022-08-03T13:02:09.370Z,2.47
2022-08-03T13:04:39.291Z,2.08
2022-08-03T13:07:14.131Z,2.10
2022-08-03T13:09:44.246Z,1.92
2022-08-03T13:12:14.173Z,2.00
2022-08-03T13:14:42.847Z,1.70
2022-08-03T13:17:11.288Z,1.63
2022-08-03T13:19:41.432Z,2.03
2022-08-03T13:22:13.579Z,1.75
2022-08-03T13:24:42.052Z,1.63
2022-08-03T13:28:11.075Z,1.73
2022-08-03T13:29:59.100Z,1.48
2022-08-03T13:32:27.207Z,2.00
2022-08-03T13:34:56.613Z,1.50
2022-08-03T13:37:24.975Z,1.58
2022-08-03T13:39:58.932Z,1.70
2022-08-03T13:42:30.000Z,1.55
2022-08-03T13:44:58.392Z,1.42
2022-08-03T13:47:26.553Z,1.63
2022-08-03T13:50:00.072Z,1.75
2022-08-03T13:52:35.270Z,2.10
2022-08-03T13:55:05.052Z,1.90
2022-08-03T13:58:02.507Z,1.77
2022-08-03T14:00:28.190Z,1.40
2022-08-03T14:03:05.069Z,1.60
2022-08-03T14:05:38.313Z,1.60
2022-08-03T14:08:07.826Z,1.50
2022-08-03T14:10:38.595Z,1.60
2022-08-03T14:13:07.321Z,1.40
2022-08-03T14:15:38.172Z,1.65
2022-08-03T14:18:11.946Z,1.73
2022-08-03T14:20:50.236Z,1.73
2022-08-03T14:23:22.909Z,1.77
2022-08-03T14:25:52.288Z,1.38
2022-08-03T14:28:23.383Z,1.30
2022-08-03T14:30:52.450Z,1.88
2022-08-03T14:33:20.523Z,2.10
2022-08-03T14:35:50.145Z,2.08
2022-08-03T14:38:18.888Z,1.85
2022-08-03T14:40:47.330Z,1.45
2022-08-03T14:43:16.531Z,1.40
2022-08-03T14:45:45.189Z,1.27
2022-08-03T14:49:02.262Z,1.50
2022-08-03T14:51:02.883Z,1.52
2022-08-03T14:53:30.892Z,1.70
2022-08-03T14:55:58.972Z,1.48
2022-08-03T14:58:27.182Z,1.70
2022-08-03T15:00:56.717Z,1.55
2022-08-03T15:03:26.005Z,1.55
2022-08-03T15:05:55.571Z,1.33
2022-08-03T15:08:26.875Z,1.60
2022-08-03T15:10:55.591Z,1.58
2022-08-03T15:13:25.363Z,1.35
2022-08-03T15:15:53.467Z,1.73
2022-08-03T15:18:21.464Z,1.50
2022-08-03T15:20:50.862Z,1.95
2022-08-03T15:23:19.415Z,1.38
2022-08-03T15:26:04.210Z,1.35
2022-08-03T15:28:37.680Z,1.40
2022-08-03T15:31:06.514Z,1.27
2022-08-03T15:33:35.293Z,1.90
2022-08-03T15:36:04.029Z,1.17
2022-08-03T15:38:32.374Z,1.60
2022-08-03T15:41:01.733Z,1.50
2022-08-03T15:43:29.814Z,1.52
2022-08-03T15:46:27.793Z,1.60
2022-08-03T15:48:46.786Z,1.75
2022-08-03T15:51:15.184Z,1.33
2022-08-03T15:53:43.283Z,1.42
2022-08-03T15:56:18.132Z,1.60
2022-08-03T15:59:04.578Z,1.50
2022-08-03T16:01:35.639Z,1.30
2022-08-03T16:04:03.742Z,1.15
2022-08-03T16:06:35.085Z,1.60
2022-08-03T16:09:03.954Z,1.73
2022-08-03T16:11:33.488Z,1.40
2022-08-03T16:14:11.941Z,1.40
2022-08-03T16:16:49.255Z,1.50
2022-08-03T16:19:17.458Z,1.40
2022-08-03T16:21:48.849Z,1.50
2022-08-03T16:24:27.525Z,1.30
2022-08-03T16:26:57.914Z,1.50
2022-08-03T16:29:28.642Z,1.73
2022-08-03T16:31:56.575Z,1.60
2022-08-03T16:34:24.834Z,1.85
2022-08-03T16:36:54.661Z,1.60
2022-08-03T16:39:22.847Z,1.90
2022-08-03T16:41:54.360Z,1.63
2022-08-03T16:44:32.133Z,1.40
2022-08-03T16:47:00.737Z,1.65
2022-08-03T16:49:53.763Z,1.85
2022-08-03T16:52:17.909Z,1.70
2022-08-03T16:54:53.054Z,1.60
2022-08-03T16:57:58.189Z,1.42
2022-08-03T17:00:34.101Z,1.50
2022-08-03T17:03:04.542Z,1.52
2022-08-03T17:05:47.077Z,1.80
2022-08-03T17:08:15.831Z,1.70
2022-08-03T17:10:45.449Z,1.55
2022-08-03T17:13:20.738Z,1.40
2022-08-03T17:15:58.203Z,1.60
2022-08-03T17:18:33.150Z,1.80
2022-08-03T17:21:05.088Z,1.42
2022-08-03T17:23:42.254Z,1.48
2022-08-03T17:26:21.212Z,1.88
2022-08-03T17:28:57.395Z,1.55
2022-08-03T17:31:31.843Z,2.00
2022-08-03T17:34:04.471Z,1.83
2022-08-03T17:37:02.227Z,2.15
2022-08-03T17:39:36.162Z,1.65
2022-08-03T17:42:30.323Z,1.95
2022-08-03T17:45:01.924Z,1.88
2022-08-03T17:47:42.615Z,2.08
2022-08-03T17:50:24.047Z,1.75
2022-08-03T17:53:07.376Z,1.83
2022-08-03T17:55:55.778Z,1.80
2022-08-03T17:58:39.716Z,1.95
2022-08-03T18:02:06.122Z,1.30
2022-08-03T18:04:29.808Z,1.70
2022-08-03T18:07:00.521Z,1.60
2022-08-03T18:10:03.864Z,1.90
2022-08-03T18:12:38.414Z,2.25
2022-08-03T18:15:08.690Z,1.70
2022-08-03T18:18:02.186Z,1.63
2022-08-03T18:20:41.066Z,1.80
2022-08-03T18:23:24.801Z,1.60
2022-08-03T18:26:01.053Z,1.80
2022-08-03T18:28:29.666Z,1.73
2022-08-03T18:30:58.612Z,1.73
2022-08-03T18:34:19.155Z,1.83
2022-08-03T18:36:29.437Z,1.77
2022-08-03T18:39:01.793Z,1.90
2022-08-03T18:41:33.594Z,1.80
2022-08-03T18:44:09.594Z,1.60
2022-08-03T18:47:07.064Z,1.70
2022-08-03T18:49:43.206Z,1.70
2022-08-03T18:52:17.953Z,2.00
2022-08-03T18:55:01.078Z,2.20
2022-08-03T18:57:40.809Z,1.90
2022-08-03T19:00:14.118Z,1.60
2022-08-03T19:02:49.225Z,1.67
2022-08-03T19:05:20.426Z,1.92
2022-08-03T19:10:57.942Z,1.60
2022-08-03T19:13:40.413Z,1.63
2022-08-03T19:16:18.780Z,1.90
2022-08-03T19:18:49.942Z,2.30
2022-08-03T19:21:18.555Z,1.73
2022-08-03T19:23:49.867Z,1.90
2022-08-03T19:26:30.963Z,1.95
2022-08-03T19:29:00.095Z,1.85
2022-08-03T19:31:30.745Z,1.88
2022-08-03T19:34:00.342Z,1.70
2022-08-03T19:36:31.401Z,2.10
2022-08-03T19:39:03.267Z,1.88
2022-08-03T19:41:42.450Z,1.83
2022-08-03T19:44:12.507Z,1.77
2022-08-03T19:46:52.841Z,2.20
2022-08-03T19:49:24.312Z,1.90
2022-08-03T19:52:15.218Z,2.10
2022-08-03T19:54:53.672Z,2.00
2022-08-03T19:57:25.143Z,1.95
2022-08-03T19:59:54.892Z,2.00
2022-08-03T20:02:26.767Z,2.17
2022-08-03T20:04:57.349Z,1.90
2022-08-03T20:07:26.350Z,2.05
2022-08-03T20:09:57.025Z,1.75
2022-08-03T20:12:27.670Z,2.10
2022-08-03T20:14:58.510Z,2.30
2022-08-03T20:17:31.227Z,2.42
2022-08-03T20:20:15.604Z,1.90
2022-08-03T20:22:51.367Z,2.30
2022-08-03T20:28:26.836Z,2.05
2022-08-03T20:30:56.054Z,2.00
2022-08-03T20:33:27.582Z,2.05
2022-08-03T20:36:03.460Z,1.98
2022-08-03T20:38:31.634Z,2.17
2022-08-03T20:41:01.141Z,2.20
2022-08-03T20:43:29.256Z,2.22
2022-08-03T20:46:00.810Z,1.98
2022-08-03T20:48:48.715Z,2.03
2022-08-03T20:51:20.202Z,2.08
2022-08-03T20:53:57.032Z,2.00
2022-08-03T20:56:32.288Z,2.25
2022-08-03T20:59:03.039Z,2.35
2022-08-03T21:01:36.152Z,2.00
2022-08-03T21:04:06.780Z,2.00
2022-08-03T21:06:39.702Z,2.22
2022-08-03T21:09:09.914Z,2.00
2022-08-03T21:11:45.504Z,2.10
2022-08-03T21:13:01.365Z,1.83
2022-08-03T21:13:13.426Z,2.30
2022-08-03T21:14:19.950Z,2.25
2022-08-03T21:16:51.625Z,2.50
2022-08-03T21:19:22.395Z,2.13
2022-08-03T21:21:51.017Z,2.10
2022-08-03T21:24:22.755Z,2.50
2022-08-03T21:26:54.997Z,2.47
2022-08-03T21:29:24.604Z,1.90
2022-08-03T21:31:52.797Z,2.25
2022-08-03T21:34:21.816Z,2.45
2022-08-03T21:36:50.386Z,2.33
2022-08-03T21:39:18.823Z,2.47
2022-08-03T21:41:47.215Z,2.70
2022-08-03T21:44:25.263Z,2.55
2022-08-03T21:47:00.022Z,2.75
2022-08-03T21:50:05.846Z,2.30
2022-08-03T21:52:22.665Z,2.58
2022-08-03T21:54:55.258Z,2.38
2022-08-03T21:57:25.125Z,1.92
2022-08-03T21:59:57.894Z,2.25
2022-08-03T22:02:31.309Z,2.67
2022-08-03T22:05:00.592Z,2.55
2022-08-03T22:07:34.524Z,2.38
2022-08-03T22:10:04.220Z,2.60
2022-08-03T22:12:33.391Z,2.65
2022-08-03T22:15:05.483Z,2.65
2022-08-03T22:17:56.084Z,2.47
2022-08-03T22:20:23.362Z,2.65
2022-08-03T22:22:56.637Z,2.70
2022-08-03T22:25:29.088Z,3.00
2022-08-03T22:27:59.681Z,2.80
2022-08-03T22:30:29.610Z,2.80
2022-08-03T22:32:58.970Z,2.78
2022-08-03T22:35:28.540Z,2.83
2022-08-03T22:37:59.486Z,2.92
2022-08-03T22:40:28.810Z,3.03
2022-08-03T22:42:58.260Z,2.92
2022-08-03T22:46:06.817Z,2.72
2022-08-03T22:48:18.028Z,3.10
2022-08-03T22:50:47.530Z,3.50
2022-08-03T22:53:20.264Z,2.75
2022-08-03T22:58:17.874Z,2.92
2022-08-03T23:00:53.761Z,3.42
2022-08-03T23:03:58.994Z,3.30
2022-08-03T23:06:17.309Z,3.30
2022-08-03T23:08:47.293Z,3.30
2022-08-03T23:11:17.991Z,3.15
2022-08-03T23:13:47.777Z,3.47
2022-08-03T23:16:27.944Z,3.03
2022-08-03T23:19:00.276Z,4.07
2022-08-03T23:21:53.733Z,2.90
2022-08-03T23:24:30.496Z,3.17
2022-08-03T23:26:59.375Z,3.58
2022-08-03T23:29:27.745Z,3.35
2022-08-03T23:31:57.376Z,3.65
2022-08-03T23:34:46.135Z,3.50
2022-08-03T23:37:15.507Z,3.42
2022-08-03T23:39:47.200Z,3.30
2022-08-03T23:42:18.172Z,3.47
2022-08-03T23:44:47.076Z,3.85
2022-08-03T23:47:15.407Z,3.80
2022-08-03T23:49:45.612Z,3.75
2022-08-03T23:52:19.928Z,3.58
2022-08-03T23:55:05.283Z,3.90
2022-08-03T23:57:44.325Z,3.97
